sensor_id;sensor_type;location;lat;lon;timestamp;pressure;altitude;pressure_sealevel;temperature;humidity
58843;BME280;44614;54.356;10.100;2023-04-27T16:20:09;101773.81;;;8.75;67.10
58843;BME280;44614;54.356;10.100;2023-04-27T16:22:35;101765.34;;;8.70;68.13
58843;BME280;44614;54.356;10.100;2023-04-27T16:25:02;101772.22;;;8.51;68.83
58843;BME280;44614;54.356;10.100;2023-04-27T16:27:28;101762.66;;;8.47;70.69
58843;BME280;44614;54.356;10.100;2023-04-27T16:29:54;101760.47;;;8.43;70.72
58843;BME280;44614;54.356;10.100;2023-04-27T16:32:20;101760.41;;;8.51;71.89
58843;BME280;44614;54.356;10.100;2023-04-27T16:34:45;101743.50;;;8.62;71.49
58843;BME280;44614;54.356;10.100;2023-04-27T16:37:11;101751.91;;;8.75;70.68
58843;BME280;44614;54.356;10.100;2023-04-27T16:39:37;101752.00;;;8.82;71.07
58843;BME280;44614;54.356;10.100;2023-04-27T16:42:03;101764.66;;;8.98;71.22
58843;BME280;44614;54.356;10.100;2023-04-27T16:44:28;101762.09;;;8.96;69.74
58843;BME280;44614;54.356;10.100;2023-04-27T16:46:53;101768.50;;;9.03;70.72
58843;BME280;44614;54.356;10.100;2023-04-27T16:49:19;101757.56;;;9.03;71.18
58843;BME280;44614;54.356;10.100;2023-04-27T16:51:44;101755.97;;;8.94;70.71
58843;BME280;44614;54.356;10.100;2023-04-27T16:54:09;101753.22;;;8.79;68.57
58843;BME280;44614;54.356;10.100;2023-04-27T16:56:35;101761.53;;;8.71;70.41
58843;BME280;44614;54.356;10.100;2023-04-27T16:59:01;101765.22;;;8.64;71.08
58843;BME280;44614;54.356;10.100;2023-04-27T17:01:26;101774.84;;;8.60;71.28
58843;BME280;44614;54.356;10.100;2023-04-27T17:03:54;101764.47;;;8.55;66.13
58843;BME280;44614;54.356;10.100;2023-04-27T17:06:21;101757.66;;;8.51;71.72
58843;BME280;44614;54.356;10.100;2023-04-27T17:08:47;101767.22;;;8.55;72.66
58843;BME280;44614;54.356;10.100;2023-04-27T17:11:12;101766.81;;;8.58;72.09
58843;BME280;44614;54.356;10.100;2023-04-27T17:13:38;101746.34;;;8.31;71.95
58843;BME280;44614;54.356;10.100;2023-04-27T17:16:04;101772.94;;;8.45;71.66
58843;BME280;44614;54.356;10.100;2023-04-27T17:18:30;101769.63;;;8.50;72.95
58843;BME280;44614;54.356;10.100;2023-04-27T17:20:57;101770.03;;;8.62;72.57
58843;BME280;44614;54.356;10.100;2023-04-27T17:23:23;101772.03;;;8.68;72.75
58843;BME280;44614;54.356;10.100;2023-04-27T17:25:48;101769.38;;;8.60;71.90
58843;BME280;44614;54.356;10.100;2023-04-27T17:28:13;101763.31;;;8.49;71.97
58843;BME280;44614;54.356;10.100;2023-04-27T17:30:39;101776.34;;;8.47;72.09
58843;BME280;44614;54.356;10.100;2023-04-27T17:33:04;101764.00;;;8.51;73.21
58843;BME280;44614;54.356;10.100;2023-04-27T17:35:30;101767.38;;;8.53;73.46
58843;BME280;44614;54.356;10.100;2023-04-27T17:37:55;101777.47;;;8.53;71.86
58843;BME280;44614;54.356;10.100;2023-04-27T17:40:20;101768.41;;;8.52;72.55
58843;BME280;44614;54.356;10.100;2023-04-27T17:42:47;101765.41;;;8.47;72.87
58843;BME280;44614;54.356;10.100;2023-04-27T17:45:13;101755.03;;;8.35;73.43
58843;BME280;44614;54.356;10.100;2023-04-27T17:47:38;101763.03;;;8.44;73.70
58843;BME280;44614;54.356;10.100;2023-04-27T17:50:05;101769.56;;;8.35;73.37
58843;BME280;44614;54.356;10.100;2023-04-27T17:52:31;101764.19;;;8.27;74.06
58843;BME280;44614;54.356;10.100;2023-04-27T17:54:56;101763.22;;;8.20;74.67
58843;BME280;44614;54.356;10.100;2023-04-27T17:57:22;101759.84;;;8.18;74.53
58843;BME280;44614;54.356;10.100;2023-04-27T17:59:47;101759.91;;;8.10;74.52
58843;BME280;44614;54.356;10.100;2023-04-27T18:02:14;101763.00;;;8.06;74.53
58843;BME280;44614;54.356;10.100;2023-04-27T18:04:39;101759.03;;;7.94;74.68
58843;BME280;44614;54.356;10.100;2023-04-27T18:07:05;101759.66;;;7.96;74.80
58843;BME280;44614;54.356;10.100;2023-04-27T18:09:30;101742.00;;;7.84;75.07
58843;BME280;44614;54.356;10.100;2023-04-27T18:11:57;101769.63;;;7.89;75.40
58843;BME280;44614;54.356;10.100;2023-04-27T18:14:23;101753.63;;;7.86;75.67
58843;BME280;44614;54.356;10.100;2023-04-27T18:16:48;101770.69;;;7.88;75.68
58843;BME280;44614;54.356;10.100;2023-04-27T18:19:13;101769.41;;;7.76;75.37
58843;BME280;44614;54.356;10.100;2023-04-27T18:21:39;101764.00;;;7.68;75.72
58843;BME280;44614;54.356;10.100;2023-04-27T18:24:04;101765.56;;;7.62;76.23
58843;BME280;44614;54.356;10.100;2023-04-27T18:26:33;101769.69;;;7.58;76.03
58843;BME280;44614;54.356;10.100;2023-04-27T18:28:58;101766.16;;;7.49;75.92
58843;BME280;44614;54.356;10.100;2023-04-27T18:31:24;101769.59;;;7.43;75.85
58843;BME280;44614;54.356;10.100;2023-04-27T18:33:49;101774.06;;;7.44;75.73
58843;BME280;44614;54.356;10.100;2023-04-27T18:36:15;101777.31;;;7.40;75.30
58843;BME280;44614;54.356;10.100;2023-04-27T18:38:40;101775.97;;;7.36;75.63
58843;BME280;44614;54.356;10.100;2023-04-27T18:41:06;101771.41;;;7.28;75.27
58843;BME280;44614;54.356;10.100;2023-04-27T18:43:34;101768.56;;;7.21;75.64
58843;BME280;44614;54.356;10.100;2023-04-27T18:46:00;101760.25;;;7.06;75.58
58843;BME280;44614;54.356;10.100;2023-04-27T18:48:26;101773.03;;;7.14;75.44
58843;BME280;44614;54.356;10.100;2023-04-27T18:50:51;101771.69;;;7.10;75.19
58843;BME280;44614;54.356;10.100;2023-04-27T18:53:16;101770.16;;;7.07;75.23
58843;BME280;44614;54.356;10.100;2023-04-27T18:55:41;101772.03;;;7.07;75.30
58843;BME280;44614;54.356;10.100;2023-04-27T18:58:07;101777.34;;;7.00;75.19
58843;BME280;44614;54.356;10.100;2023-04-27T19:00:32;101775.31;;;6.94;75.48
58843;BME280;44614;54.356;10.100;2023-04-27T19:02:58;101783.03;;;6.91;75.60
58843;BME280;44614;54.356;10.100;2023-04-27T19:05:23;101774.84;;;6.82;75.67
58843;BME280;44614;54.356;10.100;2023-04-27T19:07:48;101760.91;;;6.69;75.73
58843;BME280;44614;54.356;10.100;2023-04-27T19:10:14;101776.25;;;6.70;76.08
58843;BME280;44614;54.356;10.100;2023-04-27T19:12:42;101784.13;;;6.65;76.12
58843;BME280;44614;54.356;10.100;2023-04-27T19:15:08;101781.91;;;6.61;76.33
58843;BME280;44614;54.356;10.100;2023-04-27T19:17:33;101781.91;;;6.52;76.46
58843;BME280;44614;54.356;10.100;2023-04-27T19:19:59;101778.88;;;6.39;76.59
58843;BME280;44614;54.356;10.100;2023-04-27T19:22:24;101784.00;;;6.34;77.08
58843;BME280;44614;54.356;10.100;2023-04-27T19:24:51;101778.56;;;6.26;77.11
58843;BME280;44614;54.356;10.100;2023-04-27T19:27:16;101783.00;;;6.19;77.20
58843;BME280;44614;54.356;10.100;2023-04-27T19:29:52;101782.31;;;6.08;77.16
58843;BME280;44614;54.356;10.100;2023-04-27T19:32:19;101782.47;;;5.99;77.36
58843;BME280;44614;54.356;10.100;2023-04-27T19:34:45;101775.47;;;5.88;77.84
58843;BME280;44614;54.356;10.100;2023-04-27T19:37:11;101781.94;;;5.95;77.58
58843;BME280;44614;54.356;10.100;2023-04-27T19:39:37;101785.34;;;5.89;77.83
58843;BME280;44614;54.356;10.100;2023-04-27T19:42:02;101783.13;;;5.84;77.86
58843;BME280;44614;54.356;10.100;2023-04-27T19:44:28;101787.38;;;5.79;78.16
58843;BME280;44614;54.356;10.100;2023-04-27T19:46:53;101814.28;;;5.74;78.03
58843;BME280;44614;54.356;10.100;2023-04-27T19:49:19;101787.69;;;5.68;78.27
58843;BME280;44614;54.356;10.100;2023-04-27T19:51:44;101790.09;;;5.62;78.25
58843;BME280;44614;54.356;10.100;2023-04-27T19:54:09;101790.91;;;5.55;78.67
58843;BME280;44614;54.356;10.100;2023-04-27T19:56:35;101793.44;;;5.48;78.74
58843;BME280;44614;54.356;10.100;2023-04-27T19:59:00;101785.25;;;5.40;78.78
58843;BME280;44614;54.356;10.100;2023-04-27T20:01:26;101785.25;;;5.32;78.90
58843;BME280;44614;54.356;10.100;2023-04-27T20:03:52;101789.66;;;5.33;78.94
58843;BME280;44614;54.356;10.100;2023-04-27T20:06:18;101790.47;;;5.25;79.14
58843;BME280;44614;54.356;10.100;2023-04-27T20:08:44;101795.59;;;5.20;79.48
58843;BME280;44614;54.356;10.100;2023-04-27T20:11:10;101788.38;;;5.11;79.28
58843;BME280;44614;54.356;10.100;2023-04-27T20:13:35;101791.28;;;5.09;79.56
58843;BME280;44614;54.356;10.100;2023-04-27T20:16:00;101791.78;;;5.05;79.97
58843;BME280;44614;54.356;10.100;2023-04-27T20:18:25;101793.13;;;5.01;79.54
58843;BME280;44614;54.356;10.100;2023-04-27T20:20:55;101794.47;;;4.97;79.66
58843;BME280;44614;54.356;10.100;2023-04-27T20:23:20;101783.19;;;4.92;79.94
58843;BME280;44614;54.356;10.100;2023-04-27T20:25:46;101798.16;;;4.87;79.64
58843;BME280;44614;54.356;10.100;2023-04-27T20:28:11;101790.47;;;4.83;80.05
58843;BME280;44614;54.356;10.100;2023-04-27T20:30:36;101791.13;;;4.77;79.78
58843;BME280;44614;54.356;10.100;2023-04-27T20:33:02;101795.19;;;4.73;80.20
58843;BME280;44614;54.356;10.100;2023-04-27T20:35:27;101793.78;;;4.69;80.10
58843;BME280;44614;54.356;10.100;2023-04-27T20:37:53;101794.47;;;4.62;80.30
58843;BME280;44614;54.356;10.100;2023-04-27T20:40:18;101782.50;;;4.55;80.18
58843;BME280;44614;54.356;10.100;2023-04-27T20:42:44;101789.97;;;4.53;80.31
58843;BME280;44614;54.356;10.100;2023-04-27T20:45:10;101794.88;;;4.50;80.77
58843;BME280;44614;54.356;10.100;2023-04-27T20:47:36;101789.91;;;4.45;80.34
58843;BME280;44614;54.356;10.100;2023-04-27T20:50:02;101787.69;;;4.40;80.31
58843;BME280;44614;54.356;10.100;2023-04-27T20:52:28;101771.09;;;4.26;80.51
58843;BME280;44614;54.356;10.100;2023-04-27T20:54:53;101783.34;;;4.30;80.93
58843;BME280;44614;54.356;10.100;2023-04-27T20:57:19;101792.00;;;4.25;80.91
58843;BME280;44614;54.356;10.100;2023-04-27T20:59:44;101786.19;;;4.20;80.68
58843;BME280;44614;54.356;10.100;2023-04-27T21:02:10;101783.06;;;4.15;81.16
58843;BME280;44614;54.356;10.100;2023-04-27T21:04:35;101782.53;;;4.11;81.26
58843;BME280;44614;54.356;10.100;2023-04-27T21:07:00;101789.28;;;4.07;81.08
58843;BME280;44614;54.356;10.100;2023-04-27T21:09:26;101780.78;;;4.02;80.90
58843;BME280;44614;54.356;10.100;2023-04-27T21:11:51;101778.66;;;3.96;80.71
58843;BME280;44614;54.356;10.100;2023-04-27T21:14:16;101775.41;;;3.92;81.04
58843;BME280;44614;54.356;10.100;2023-04-27T21:16:42;101784.88;;;3.88;80.82
58843;BME280;44614;54.356;10.100;2023-04-27T21:19:07;101779.25;;;3.82;80.91
58843;BME280;44614;54.356;10.100;2023-04-27T21:21:34;101778.53;;;3.80;81.04
58843;BME280;44614;54.356;10.100;2023-04-27T21:23:59;101783.59;;;3.75;80.92
58843;BME280;44614;54.356;10.100;2023-04-27T21:26:24;101784.75;;;3.72;80.88
58843;BME280;44614;54.356;10.100;2023-04-27T21:28:50;101727.00;;;3.34;80.71
58843;BME280;44614;54.356;10.100;2023-04-27T21:31:15;101779.06;;;3.65;80.91
58843;BME280;44614;54.356;10.100;2023-04-27T21:33:40;101784.81;;;3.62;81.01
58843;BME280;44614;54.356;10.100;2023-04-27T21:36:06;101770.47;;;3.52;80.96
58843;BME280;44614;54.356;10.100;2023-04-27T21:38:31;101781.34;;;3.52;81.01
58843;BME280;44614;54.356;10.100;2023-04-27T21:40:57;101766.66;;;3.45;80.97
58843;BME280;44614;54.356;10.100;2023-04-27T21:43:23;101773.09;;;3.44;80.66
58843;BME280;44614;54.356;10.100;2023-04-27T21:45:48;101770.69;;;3.41;80.92
58843;BME280;44614;54.356;10.100;2023-04-27T21:48:13;101773.72;;;3.38;81.03
58843;BME280;44614;54.356;10.100;2023-04-27T21:50:38;101750.81;;;3.23;80.90
58843;BME280;44614;54.356;10.100;2023-04-27T21:53:04;101767.63;;;3.26;80.95
58843;BME280;44614;54.356;10.100;2023-04-27T21:55:29;101769.63;;;3.24;81.50
58843;BME280;44614;54.356;10.100;2023-04-27T21:57:55;101759.25;;;3.20;81.46
58843;BME280;44614;54.356;10.100;2023-04-27T22:00:20;101764.97;;;3.16;81.03
58843;BME280;44614;54.356;10.100;2023-04-27T22:02:45;101762.59;;;3.13;81.09
58843;BME280;44614;54.356;10.100;2023-04-27T22:05:12;101761.19;;;3.09;81.24
58843;BME280;44614;54.356;10.100;2023-04-27T22:07:38;101760.63;;;3.06;81.33
58843;BME280;44614;54.356;10.100;2023-04-27T22:10:04;101771.06;;;3.01;81.01
58843;BME280;44614;54.356;10.100;2023-04-27T22:12:30;101760.97;;;2.93;81.30
58843;BME280;44614;54.356;10.100;2023-04-27T22:14:55;101766.41;;;2.93;81.16
58843;BME280;44614;54.356;10.100;2023-04-27T22:17:20;101762.28;;;2.89;81.12
58843;BME280;44614;54.356;10.100;2023-04-27T22:19:46;101763.59;;;2.85;81.73
58843;BME280;44614;54.356;10.100;2023-04-27T22:22:11;101756.75;;;2.81;81.36
58843;BME280;44614;54.356;10.100;2023-04-27T22:24:36;101762.34;;;2.79;81.72
58843;BME280;44614;54.356;10.100;2023-04-27T22:27:02;101766.19;;;2.77;81.77
58843;BME280;44614;54.356;10.100;2023-04-27T22:29:28;101768.19;;;2.75;81.85
58843;BME280;44614;54.356;10.100;2023-04-27T22:31:54;101747.69;;;2.62;81.55
58843;BME280;44614;54.356;10.100;2023-04-27T22:34:20;101761.81;;;2.66;81.62
58843;BME280;44614;54.356;10.100;2023-04-27T22:36:45;101763.13;;;2.62;81.95
58843;BME280;44614;54.356;10.100;2023-04-27T22:39:11;101769.69;;;2.59;81.76
58843;BME280;44614;54.356;10.100;2023-04-27T22:41:36;101764.72;;;2.55;81.74
58843;BME280;44614;54.356;10.100;2023-04-27T22:44:01;101761.59;;;2.50;81.38
58843;BME280;44614;54.356;10.100;2023-04-27T22:46:27;101760.31;;;2.44;81.77
58843;BME280;44614;54.356;10.100;2023-04-27T22:48:52;101761.78;;;2.38;81.95
58843;BME280;44614;54.356;10.100;2023-04-27T22:51:18;101768.03;;;2.39;81.99
58843;BME280;44614;54.356;10.100;2023-04-27T22:53:43;101744.44;;;2.22;82.15
58843;BME280;44614;54.356;10.100;2023-04-27T22:56:08;101764.22;;;2.32;82.30
58843;BME280;44614;54.356;10.100;2023-04-27T22:58:34;101771.78;;;2.28;81.84
58843;BME280;44614;54.356;10.100;2023-04-27T23:24:33;101749.31;;;1.89;83.00
58843;BME280;44614;54.356;10.100;2023-04-27T23:26:59;101739.50;;;1.88;82.81
58843;BME280;44614;54.356;10.100;2023-04-27T23:29:25;101744.34;;;1.84;82.44
58843;BME280;44614;54.356;10.100;2023-04-27T23:31:50;101730.91;;;1.83;82.34
58843;BME280;44614;54.356;10.100;2023-04-27T23:34:15;101739.38;;;1.80;82.46
58843;BME280;44614;54.356;10.100;2023-04-27T23:36:41;101725.66;;;1.71;82.68
58843;BME280;44614;54.356;10.100;2023-04-27T23:39:06;101735.94;;;1.78;82.43
58843;BME280;44614;54.356;10.100;2023-04-27T23:41:32;101734.66;;;1.72;82.32
58843;BME280;44614;54.356;10.100;2023-04-27T23:43:58;101724.25;;;1.67;82.63
58843;BME280;44614;54.356;10.100;2023-04-27T23:46:23;101708.13;;;1.56;82.32
58843;BME280;44614;54.356;10.100;2023-04-27T23:48:49;101723.53;;;1.65;82.75
58843;BME280;44614;54.356;10.100;2023-04-27T23:51:14;101721.97;;;1.63;82.58
58843;BME280;44614;54.356;10.100;2023-04-27T23:53:40;101713.13;;;1.51;82.67
58843;BME280;44614;54.356;10.100;2023-04-27T23:56:14;101721.41;;;1.59;82.84
58843;BME280;44614;54.356;10.100;2023-04-27T23:58:40;101719.97;;;1.55;82.81
